Time;durP1;ratioP1;P1;durP2;ratioP2;P2;SDS_P1;SDS_P2;PMS_P1;PMS_P2;Temp;Humidity;BMP_temperature;BMP_pressure;BME280_temperature;BME280_humidity;BME280_pressure;Samples;Min_cycle;Max_cycle;Signal;HPM_P1;HPM_P2
2023/04/21 00:00:57;;;;;;;12.10;9.90;;;;;;;8.07;71.60;100337.94;4126371;28;20109;-74
2023/04/21 00:03:00;;;;;;;17.20;13.82;;;;;;;8.05;71.77;100345.66;4135721;28;20049;-74
2023/04/21 00:05:04;;;;;;;16.27;11.98;;;;;;;8.04;71.82;100336.13;4114442;28;20437;-74
2023/04/21 00:07:07;;;;;;;14.43;11.35;;;;;;;8.03;71.93;100336.97;4102333;28;20111;-74
2023/04/21 00:09:10;;;;;;;14.68;12.30;;;;;;;8.00;72.33;100334.31;4120935;28;20423;-74
2023/04/21 00:11:14;;;;;;;15.40;12.63;;;;;;;7.96;72.16;100338.56;4140625;28;20042;-75
2023/04/21 00:13:16;;;;;;;19.52;14.45;;;;;;;7.94;71.79;100332.44;4141697;28;20499;-74
2023/04/21 00:15:21;;;;;;;15.27;13.25;;;;;;;7.92;72.42;100323.78;4144920;28;20613;-73
2023/04/21 00:17:24;;;;;;;15.38;12.52;;;;;;;7.89;72.74;100331.50;4141417;28;20034;-75
2023/04/21 00:19:27;;;;;;;15.00;12.25;;;;;;;7.86;72.00;100329.69;4116532;28;20057;-74
2023/04/21 00:21:30;;;;;;;14.93;12.60;;;;;;;7.86;72.10;100328.84;4119414;28;20070;-74
2023/04/21 00:23:33;;;;;;;17.83;13.75;;;;;;;7.85;72.43;100332.25;4121432;28;20181;-74
2023/04/21 00:25:37;;;;;;;17.58;13.65;;;;;;;7.81;72.30;100322.66;4137087;28;20057;-75
2023/04/21 00:27:39;;;;;;;18.63;14.55;;;;;;;7.78;72.23;100332.94;4144516;28;20038;-75
2023/04/21 00:29:42;;;;;;;17.50;13.73;;;;;;;7.77;72.66;100332.09;4122658;28;20476;-75
2023/04/21 00:31:48;;;;;;;17.90;12.82;;;;;;;7.75;72.29;100327.69;4108983;28;20043;-75
2023/04/21 00:33:51;;;;;;;16.67;12.65;;;;;;;7.68;72.61;100322.38;4121350;28;20042;-76
2023/04/21 00:35:58;;;;;;;15.15;13.02;;;;;;;7.63;72.68;100323.97;4127434;28;20508;-76
2023/04/21 00:38:02;;;;;;;18.85;14.05;;;;;;;7.65;72.28;100324.00;4140515;28;20062;-75
2023/04/21 00:40:06;;;;;;;16.23;13.02;;;;;;;7.69;72.74;100321.56;4143181;28;20044;-75
2023/04/21 00:42:09;;;;;;;14.38;11.77;;;;;;;7.69;72.56;100331.91;4145367;28;20038;-75
2023/04/21 00:44:12;;;;;;;16.30;13.65;;;;;;;7.69;72.36;100329.31;4118723;28;20087;-75
2023/04/21 00:46:15;;;;;;;18.58;14.07;;;;;;;7.68;72.47;100324.97;4131475;28;20057;-75
2023/04/21 00:48:19;;;;;;;17.85;14.63;;;;;;;7.66;72.08;100321.47;4119644;28;20042;-76
2023/04/21 00:50:22;;;;;;;15.90;12.65;;;;;;;7.60;72.36;100321.31;4118666;28;20408;-75
2023/04/21 00:52:26;;;;;;;15.05;12.68;;;;;;;7.52;72.93;100317.69;4116183;28;20066;-75
2023/04/21 00:54:29;;;;;;;19.80;15.10;;;;;;;7.46;72.43;100320.09;4130727;28;20133;-75
2023/04/21 00:56:33;;;;;;;20.25;15.52;;;;;;;7.45;72.72;100321.84;4113734;28;20130;-74
2023/04/21 00:58:38;;;;;;;17.48;14.43;;;;;;;7.48;72.77;100315.88;4112885;28;20038;-74
2023/04/21 01:00:41;;;;;;;18.88;14.00;;;;;;;7.47;73.08;100311.53;4096970;28;20042;-76
2023/04/21 01:02:45;;;;;;;18.35;12.52;;;;;;;7.45;73.41;100308.03;4108362;28;20050;-76
2023/04/21 01:04:50;;;;;;;15.95;13.88;;;;;;;7.38;73.19;100306.13;4112985;28;20039;-75
2023/04/21 01:06:54;;;;;;;17.83;15.38;;;;;;;7.40;73.60;100309.63;4130955;28;20043;-74
2023/04/21 01:08:58;;;;;;;18.13;14.82;;;;;;;7.39;73.27;100308.75;4121586;28;20050;-76
2023/04/21 01:11:08;;;;;;;18.08;13.90;;;;;;;7.41;73.23;100312.25;4114082;28;20041;-75
2023/04/21 01:13:11;;;;;;;16.98;13.30;;;;;;;7.44;72.95;100314.03;4129439;28;20607;-74
2023/04/21 01:15:15;;;;;;;17.42;14.25;;;;;;;7.45;73.20;100305.44;4112134;28;20046;-74
2023/04/21 01:17:18;;;;;;;16.17;13.05;;;;;;;7.37;72.92;100306.97;4109287;28;20045;-74
2023/04/21 01:19:23;;;;;;;17.63;13.07;;;;;;;7.36;72.96;100300.94;4129782;28;20484;-75
2023/04/21 01:21:30;;;;;;;18.70;15.48;;;;;;;7.38;73.15;100303.56;4130016;28;20121;-75
2023/04/21 01:23:37;;;;;;;17.92;13.55;;;;;;;7.36;73.05;100307.78;4128628;28;20041;-75
2023/04/21 01:25:40;;;;;;;16.65;14.75;;;;;;;7.34;73.11;100313.81;4129109;28;20035;-73
2023/04/21 01:27:43;;;;;;;16.58;13.93;;;;;;;7.34;73.14;100308.66;4129540;28;20138;-73
2023/04/21 01:29:47;;;;;;;16.80;13.57;;;;;;;7.36;73.40;100311.28;4110398;28;20045;-74
2023/04/21 01:31:50;;;;;;;16.60;14.50;;;;;;;7.37;73.03;100315.59;4125096;28;20035;-74
2023/04/21 01:33:53;;;;;;;19.55;15.88;;;;;;;7.39;73.40;100318.22;4127243;28;20038;-73
2023/04/21 01:35:56;;;;;;;19.42;15.25;;;;;;;7.39;73.36;100315.63;4129893;28;20479;-75
2023/04/21 01:38:00;;;;;;;17.77;13.70;;;;;;;7.37;73.36;100312.13;4129666;28;20496;-74
2023/04/21 01:40:08;;;;;;;17.15;14.80;;;;;;;7.31;73.63;100308.53;4130535;28;20129;-74
2023/04/21 01:42:11;;;;;;;16.98;14.23;;;;;;;7.27;73.60;100306.75;4108338;28;20579;-73
2023/04/21 01:44:13;;;;;;;15.75;12.95;;;;;;;7.28;73.14;100297.25;4111787;28;20129;-73
2023/04/21 01:46:19;;;;;;;21.40;16.25;;;;;;;7.28;73.70;100298.13;4096896;28;20105;-73
2023/04/21 01:48:22;;;;;;;18.92;14.80;;;;;;;7.31;73.35;100300.78;4096566;28;20035;-75
2023/04/21 01:50:25;;;;;;;20.17;16.05;;;;;;;7.35;73.03;100299.16;4128505;28;20038;-75
2023/04/21 01:52:28;;;;;;;18.42;15.02;;;;;;;7.35;72.97;100304.34;4127310;28;20043;-74
2023/04/21 01:54:31;;;;;;;18.98;14.63;;;;;;;7.35;73.64;100304.34;4122946;28;20512;-75
2023/04/21 01:56:35;;;;;;;20.35;16.52;;;;;;;7.35;73.58;100309.50;4118913;28;20046;-74
2023/04/21 01:58:38;;;;;;;22.10;16.92;;;;;;;7.36;73.37;100306.09;4128771;28;20472;-74
2023/04/21 02:00:41;;;;;;;18.17;14.90;;;;;;;7.36;73.62;100306.09;4111851;28;20039;-74
2023/04/21 02:02:44;;;;;;;21.00;16.35;;;;;;;7.36;73.43;100302.63;4109582;28;20602;-74
2023/04/21 02:04:48;;;;;;;17.98;15.00;;;;;;;7.27;73.48;100313.59;4124244;28;20057;-74
2023/04/21 02:06:51;;;;;;;17.50;14.88;;;;;;;7.25;73.77;100305.81;4111962;28;20045;-74
2023/04/21 02:08:53;;;;;;;22.35;18.60;;;;;;;7.26;73.04;100310.16;4129291;28;20441;-74
2023/04/21 02:10:56;;;;;;;19.42;16.35;;;;;;;7.24;73.02;100310.94;4129806;28;20038;-75
2023/04/21 02:13:00;;;;;;;20.15;16.88;;;;;;;7.20;72.81;100315.19;4114646;28;20073;-75
2023/04/21 02:15:06;;;;;;;21.15;16.70;;;;;;;7.12;73.05;100308.94;4116153;28;20568;-75
2023/04/21 02:17:09;;;;;;;20.58;16.95;;;;;;;7.12;73.23;100307.19;4099366;28;20051;-75
2023/04/21 02:19:12;;;;;;;20.10;15.88;;;;;;;7.09;73.54;100316.59;4131131;28;20125;-74
2023/04/21 02:21:15;;;;;;;21.58;17.42;;;;;;;7.06;73.26;100319.13;4131904;28;20045;-75
2023/04/21 02:23:18;;;;;;;23.15;17.67;;;;;;;6.98;73.72;100314.63;4114430;28;20054;-75
2023/04/21 02:25:22;;;;;;;22.77;17.85;;;;;;;6.99;73.58;100316.38;4115441;28;20043;-74
2023/04/21 02:27:25;;;;;;;23.77;18.67;;;;;;;7.00;73.46;100317.25;4131446;28;20048;-74
2023/04/21 02:29:29;;;;;;;23.65;19.17;;;;;;;6.98;73.00;100314.63;4114789;28;20027;-74
2023/04/21 02:31:32;;;;;;;26.77;19.13;;;;;;;6.90;73.46;100323.88;4114109;28;20162;-74
2023/04/21 02:33:45;;;;;;;26.77;20.02;;;;;;;6.95;73.13;100324.88;4107268;28;20109;-74
2023/04/21 02:35:47;;;;;;;29.80;21.38;;;;;;;6.88;73.06;100328.13;4129481;28;20045;-74
2023/04/21 02:37:52;;;;;;;23.70;17.95;;;;;;;6.80;73.44;100334.78;4098634;28;20043;-75
2023/04/21 02:39:57;;;;;;;25.55;19.25;;;;;;;6.79;73.99;100322.69;4131460;28;20113;-74
2023/04/21 02:42:00;;;;;;;25.75;19.52;;;;;;;6.77;73.62;100329.53;4114868;28;20047;-74
2023/04/21 02:44:03;;;;;;;38.47;23.67;;;;;;;6.75;74.08;100334.66;4112189;28;20043;-74
2023/04/21 02:46:08;;;;;;;29.60;21.73;;;;;;;6.70;73.98;100330.19;4099058;28;20107;-75
2023/04/21 02:48:11;;;;;;;23.83;18.40;;;;;;;6.60;74.21;100326.47;4110156;28;20038;-75
2023/04/21 02:50:14;;;;;;;32.10;21.92;;;;;;;6.64;74.70;100326.63;4131456;28;20069;-75
2023/04/21 02:52:17;;;;;;;38.42;22.80;;;;;;;6.65;74.66;100324.91;4112971;28;20049;-76
2023/04/21 02:54:20;;;;;;;26.35;21.00;;;;;;;6.62;75.06;100338.59;4118268;28;20070;-75
2023/04/21 02:56:23;;;;;;;30.02;22.33;;;;;;;6.56;74.98;100328.09;4130569;28;20416;-74
2023/04/21 02:58:26;;;;;;;24.77;20.13;;;;;;;6.56;75.30;100327.25;4113957;28;20030;-74
2023/04/21 03:00:29;;;;;;;26.70;19.33;;;;;;;6.61;74.93;100333.41;4115163;28;20038;-75
2023/04/21 03:02:33;;;;;;;29.90;21.30;;;;;;;6.61;74.98;100328.22;4113609;28;20046;-74
2023/04/21 03:04:36;;;;;;;33.63;21.60;;;;;;;6.65;74.59;100335.25;4132147;28;20058;-74
2023/04/21 03:06:39;;;;;;;50.50;22.38;;;;;;;6.66;74.83;100330.94;4132810;28;20046;-74
2023/04/21 03:08:42;;;;;;;69.03;23.95;;;;;;;6.64;74.21;100334.38;4113862;28;20042;-74
2023/04/21 03:10:45;;;;;;;35.08;21.10;;;;;;;6.52;75.19;100330.56;4098686;28;20042;-74
2023/04/21 03:12:48;;;;;;;23.63;18.75;;;;;;;6.49;74.77;100328.75;4128889;28;20041;-75
2023/04/21 03:14:51;;;;;;;31.27;20.10;;;;;;;6.56;74.96;100325.53;4131881;28;20056;-74
2023/04/21 03:16:54;;;;;;;23.42;19.33;;;;;;;6.52;75.02;100326.28;4115047;28;20050;-74
2023/04/21 03:18:58;;;;;;;22.98;19.10;;;;;;;6.54;75.13;100329.78;4128612;28;20030;-74
2023/04/21 03:21:01;;;;;;;27.38;21.52;;;;;;;6.55;74.94;100326.34;4130226;28;20515;-74
2023/04/21 03:23:06;;;;;;;36.92;20.20;;;;;;;6.51;74.94;100324.50;4125369;28;20485;-74
2023/04/21 03:25:10;;;;;;;51.88;25.40;;;;;;;6.52;74.84;100328.84;4131528;28;20100;-74
2023/04/21 03:27:13;;;;;;;23.70;17.92;;;;;;;6.52;74.75;100327.97;4115046;28;20143;-75
2023/04/21 03:29:16;;;;;;;27.58;20.10;;;;;;;6.52;75.25;100323.69;4114045;28;20081;-74
2023/04/21 03:31:20;;;;;;;30.88;19.42;;;;;;;6.47;74.92;100320.97;4098260;28;20473;-75
2023/04/21 03:33:25;;;;;;;25.02;18.98;;;;;;;6.41;74.91;100315.66;4131509;28;20034;-76
2023/04/21 03:35:30;;;;;;;24.42;19.10;;;;;;;6.39;75.05;100319.88;4129326;28;20053;-76
2023/04/21 03:37:33;;;;;;;31.65;19.48;;;;;;;6.33;75.40;100314.53;4114478;28;20090;-76
2023/04/21 03:39:36;;;;;;;23.45;18.25;;;;;;;6.36;75.17;100319.78;4110022;28;20039;-76
2023/04/21 03:41:40;;;;;;;25.30;18.80;;;;;;;6.31;75.08;100320.47;4113825;28;20141;-74
2023/04/21 03:43:44;;;;;;;54.42;19.60;;;;;;;6.21;75.44;100322.81;4114239;28;20113;-75
2023/04/21 03:45:47;;;;;;;24.95;18.52;;;;;;;6.22;75.70;100318.50;4127150;28;20105;-76
2023/04/21 03:47:53;;;;;;;21.90;18.10;;;;;;;6.24;75.66;100306.53;4110980;28;20039;-76
2023/04/21 03:49:56;;;;;;;32.22;21.30;;;;;;;6.25;75.39;100313.44;4108969;28;20426;-75
2023/04/21 03:52:00;;;;;;;23.25;19.58;;;;;;;6.30;75.63;100311.88;4095388;28;20043;-75
2023/04/21 03:54:03;;;;;;;74.20;22.90;;;;;;;6.36;75.57;100311.19;4126437;28;20054;-75
2023/04/21 03:56:07;;;;;;;104.03;24.80;;;;;;;6.40;75.65;100307.84;4109624;28;20449;-74
2023/04/21 03:58:09;;;;;;;29.88;19.40;;;;;;;6.39;75.59;100314.72;4128424;28;20046;-75
2023/04/21 04:00:13;;;;;;;24.30;19.88;;;;;;;6.40;75.19;100320.75;4129023;28;20041;-76
2023/04/21 04:02:16;;;;;;;23.30;18.20;;;;;;;6.38;75.21;100315.56;4131072;28;20046;-76
2023/04/21 04:04:19;;;;;;;46.83;18.30;;;;;;;6.39;75.04;100311.25;4130279;28;20034;-75
2023/04/21 04:06:22;;;;;;;63.83;21.38;;;;;;;6.41;74.87;100309.59;4113193;28;20047;-74
2023/04/21 04:08:26;;;;;;;37.78;19.40;;;;;;;6.37;74.90;100315.50;4131086;28;20046;-74
2023/04/21 04:10:29;;;;;;;30.90;19.00;;;;;;;6.35;75.21;100318.06;4129590;28;20043;-74
2023/04/21 04:12:32;;;;;;;49.55;21.27;;;;;;;6.35;75.39;100318.06;4129542;28;20046;-74
2023/04/21 04:14:35;;;;;;;35.53;23.88;;;;;;;6.33;75.37;100321.41;4097445;28;20094;-74
2023/04/21 04:16:38;;;;;;;97.20;25.20;;;;;;;6.47;75.25;100318.41;4112455;28;20039;-74
2023/04/21 04:18:41;;;;;;;120.03;24.85;;;;;;;6.44;75.32;100314.88;4129677;28;20093;-74
2023/04/21 04:20:43;;;;;;;21.95;17.52;;;;;;;6.40;75.31;100307.84;4127133;28;20034;-74
2023/04/21 04:22:46;;;;;;;26.10;20.35;;;;;;;6.40;75.51;100310.44;4129473;28;20468;-74
2023/04/21 04:24:52;;;;;;;99.43;25.95;;;;;;;6.42;75.22;100308.75;4111609;28;20170;-73
2023/04/21 04:26:56;;;;;;;78.90;25.95;;;;;;;6.47;75.23;100309.78;4123254;28;20428;-73
2023/04/21 04:29:01;;;;;;;32.13;22.98;;;;;;;6.42;75.60;100307.03;4128171;28;20034;-73
2023/04/21 04:31:03;;;;;;;38.70;22.67;;;;;;;6.40;75.62;100307.84;4115247;28;20046;-74
2023/04/21 04:33:07;;;;;;;77.70;25.10;;;;;;;6.45;75.84;100306.25;4108563;28;20134;-73
2023/04/21 04:35:11;;;;;;;61.97;26.75;;;;;;;6.50;75.52;100308.97;4124130;28;20048;-74
2023/04/21 04:37:15;;;;;;;108.90;26.65;;;;;;;6.44;75.60;100320.91;4116080;28;20069;-73
2023/04/21 04:39:17;;;;;;;27.38;21.15;;;;;;;6.37;75.92;100318.09;4137937;28;20567;-73
2023/04/21 04:41:23;;;;;;;40.25;24.10;;;;;;;6.38;76.07;100317.25;4109741;28;20105;-73
2023/04/21 04:43:26;;;;;;;79.45;27.73;;;;;;;6.43;76.14;100318.28;4129530;28;20038;-73
2023/04/21 04:45:31;;;;;;;36.67;21.15;;;;;;;6.39;76.56;100309.53;4121769;28;20129;-74
2023/04/21 04:47:34;;;;;;;34.70;26.50;;;;;;;6.41;76.11;100315.66;4116051;28;20043;-74
2023/04/21 04:49:38;;;;;;;131.82;30.77;;;;;;;6.48;76.70;100308.94;4118867;28;20046;-73
2023/04/21 04:51:41;;;;;;;147.02;33.40;;;;;;;6.53;76.41;100301.34;4119906;28;20046;-73
2023/04/21 04:53:43;;;;;;;42.45;24.58;;;;;;;6.53;76.77;100302.19;4113867;28;20046;-74
2023/04/21 04:55:46;;;;;;;39.80;24.52;;;;;;;6.50;77.04;100312.44;4115007;28;20081;-73
2023/04/21 04:57:51;;;;;;;45.10;27.48;;;;;;;6.52;76.89;100308.19;4130816;28;20049;-73
2023/04/21 04:59:55;;;;;;;49.35;28.70;;;;;;;6.57;77.19;100313.47;4116186;28;20038;-74
2023/04/21 05:01:58;;;;;;;116.78;31.00;;;;;;;6.84;76.35;100322.84;4129161;28;20065;-74
2023/04/21 05:04:00;;;;;;;116.43;36.00;;;;;;;6.91;76.01;100330.78;4136588;28;20096;-74
2023/04/21 05:06:04;;;;;;;139.15;37.58;;;;;;;6.79;76.17;100325.28;4129095;28;20065;-74
2023/04/21 05:08:07;;;;;;;81.13;35.42;;;;;;;6.76;76.43;100327.78;4111277;28;20073;-74
2023/04/21 05:10:10;;;;;;;99.00;36.75;;;;;;;6.82;76.37;100330.56;4097295;28;20043;-73
2023/04/21 05:12:13;;;;;;;99.60;37.72;;;;;;;6.88;76.41;100333.28;4117100;28;20106;-73
2023/04/21 05:14:17;;;;;;;102.82;36.22;;;;;;;6.88;76.13;100334.97;4135790;28;20042;-73
2023/04/21 05:16:21;;;;;;;108.70;36.72;;;;;;;6.78;75.69;100327.00;4129763;28;20459;-73
2023/04/21 05:18:24;;;;;;;75.53;29.23;;;;;;;6.70;75.94;100322.44;4104698;28;20571;-72
2023/04/21 05:20:27;;;;;;;61.35;34.05;;;;;;;6.64;76.14;100328.31;4102777;28;20047;-73
2023/04/21 05:22:30;;;;;;;57.85;31.48;;;;;;;6.61;76.33;100331.72;4108134;28;20051;-73
2023/04/21 05:24:33;;;;;;;43.97;29.48;;;;;;;6.58;76.62;100339.34;4092978;28;20047;-74
2023/04/21 05:26:36;;;;;;;65.47;34.33;;;;;;;6.63;76.93;100337.78;4117554;28;20432;-74
2023/04/21 05:28:39;;;;;;;63.92;31.10;;;;;;;6.59;76.71;100340.25;4124886;28;20039;-73
2023/04/21 05:30:43;;;;;;;60.33;31.90;;;;;;;6.54;76.78;100337.53;4102069;28;20053;-73
2023/04/21 05:32:46;;;;;;;62.85;31.15;;;;;;;6.54;77.36;100337.53;4098142;28;20039;-74
2023/04/21 05:34:49;;;;;;;108.32;34.28;;;;;;;6.67;76.61;100330.97;4097946;29;20035;-74
2023/04/21 05:36:52;;;;;;;70.38;35.45;;;;;;;6.66;76.49;100336.09;4131503;28;20500;-74
2023/04/21 05:38:55;;;;;;;71.25;36.58;;;;;;;6.71;76.51;100330.25;4097713;29;20051;-74
2023/04/21 05:41:51;;;;;;;66.68;33.55;;;;;;;6.67;77.16;100335.28;4104098;28;20047;-73
2023/04/21 05:43:57;;;;;;;52.67;28.52;;;;;;;6.66;77.36;100342.16;4089678;28;20119;-74
2023/04/21 05:46:02;;;;;;;71.05;31.67;;;;;;;6.65;76.86;100340.41;4116082;28;20047;-74
2023/04/21 05:48:06;;;;;;;62.38;34.25;;;;;;;6.71;77.46;100344.88;4129992;28;20069;-73
2023/04/21 05:50:09;;;;;;;50.65;28.55;;;;;;;6.71;77.47;100340.56;4108878;28;20134;-74
2023/04/21 05:52:12;;;;;;;58.65;31.88;;;;;;;6.78;77.16;100352.84;4122974;28;20034;-74
2023/04/21 05:54:15;;;;;;;52.28;30.75;;;;;;;6.84;77.04;100349.53;4098106;28;20098;-73
2023/04/21 05:56:18;;;;;;;55.13;30.33;;;;;;;6.90;76.88;100347.13;4115589;28;20539;-73
2023/04/21 05:58:21;;;;;;;44.00;27.70;;;;;;;6.86;76.74;100354.75;4122432;28;20042;-73
2023/04/21 06:00:24;;;;;;;59.38;33.50;;;;;;;6.83;76.66;100350.38;4140549;28;20033;-74
2023/04/21 06:02:29;;;;;;;50.17;29.80;;;;;;;6.91;76.95;100356.63;4103525;28;20046;-73
2023/04/21 06:04:32;;;;;;;44.35;27.20;;;;;;;7.00;77.06;100361.19;4125943;28;20221;-74
2023/04/21 06:06:35;;;;;;;47.97;29.45;;;;;;;7.09;76.30;100358.81;4098719;28;20043;-74
2023/04/21 06:08:38;;;;;;;51.00;30.48;;;;;;;7.14;76.03;100356.34;4116234;28;20122;-73
2023/04/21 06:10:41;;;;;;;44.80;27.60;;;;;;;7.14;75.62;100353.78;4105931;28;20055;-75
2023/04/21 06:12:44;;;;;;;47.17;28.77;;;;;;;7.11;75.70;100356.28;4097049;28;20102;-75
2023/04/21 06:14:47;;;;;;;46.88;31.00;;;;;;;7.03;75.92;100357.81;4124711;28;20073;-74
2023/04/21 06:16:50;;;;;;;54.63;34.15;;;;;;;6.99;76.64;100365.47;4104566;28;20055;-74
2023/04/21 06:18:54;;;;;;;49.03;32.83;;;;;;;6.97;77.19;100361.09;4116512;28;20556;-75
2023/04/21 06:20:57;;;;;;;40.85;27.23;;;;;;;6.97;77.06;100368.84;4109199;28;20062;-75
2023/04/21 06:23:01;;;;;;;53.15;33.65;;;;;;;7.01;77.18;100369.78;4110572;28;20035;-75
2023/04/21 06:25:04;;;;;;;50.90;32.80;;;;;;;7.06;77.09;100373.41;4117646;28;20049;-75
2023/04/21 06:27:11;;;;;;;43.47;30.48;;;;;;;7.09;77.26;100369.16;4105404;28;20042;-75
2023/04/21 06:29:14;;;;;;;46.90;31.17;;;;;;;7.21;76.96;100375.50;4117794;28;20054;-75
2023/04/21 06:31:18;;;;;;;41.10;28.42;;;;;;;7.31;77.19;100365.44;4138977;28;20181;-75
2023/04/21 06:33:24;;;;;;;49.47;31.77;;;;;;;7.41;76.56;100378.63;4144037;28;20385;-75
2023/04/21 06:35:29;;;;;;;55.35;34.25;;;;;;;7.53;75.92;100375.47;4126116;28;20046;-75
2023/04/21 06:37:32;;;;;;;;;;;;;;;7.59;75.87;100376.47;4131791;28;20062;-74
2023/04/21 06:39:35;;;;;;;57.83;37.80;;;;;;;7.66;74.63;100375.78;4112799;28;20025;-74
2023/04/21 06:41:38;;;;;;;55.08;36.80;;;;;;;7.57;74.75;100373.00;4134444;28;20042;-74
2023/04/21 06:43:41;;;;;;;57.78;36.97;;;;;;;7.57;75.55;100366.94;4138187;28;20170;-74
2023/04/21 06:45:44;;;;;;;47.47;32.13;;;;;;;7.59;75.57;100365.25;4113571;28;20055;-74
2023/04/21 06:47:47;;;;;;;43.97;28.90;;;;;;;7.59;75.78;100371.31;4113773;28;20411;-74
2023/04/21 06:49:50;;;;;;;45.38;31.55;;;;;;;7.69;75.70;100370.72;4121620;28;20062;-74
2023/04/21 06:51:54;;;;;;;45.50;30.40;;;;;;;7.73;75.37;100374.25;4117677;28;20523;-74
2023/04/21 06:53:57;;;;;;;44.42;31.25;;;;;;;7.79;75.76;100379.56;4103606;28;20406;-74
2023/04/21 06:56:00;;;;;;;52.50;33.63;;;;;;;7.75;75.76;100377.72;4119208;28;20121;-75
2023/04/21 06:58:03;;;;;;;54.72;35.08;;;;;;;7.74;76.03;100376.00;4108217;28;20054;-75
2023/04/21 07:00:07;;;;;;;46.63;32.13;;;;;;;7.78;75.91;100358.81;4134453;28;20042;-74
2023/04/21 07:02:10;;;;;;;52.08;33.28;;;;;;;7.81;76.27;100367.56;4133520;28;20049;-75
2023/04/21 07:04:14;;;;;;;43.30;30.35;;;;;;;7.85;76.01;100366.75;4122422;28;20050;-74
2023/04/21 07:06:17;;;;;;;47.78;30.48;;;;;;;7.88;76.06;100362.50;4142380;28;20035;-74
2023/04/21 07:08:25;;;;;;;43.53;30.52;;;;;;;7.88;76.01;100362.50;4148976;28;20546;-75
2023/04/21 07:10:28;;;;;;;40.38;29.23;;;;;;;7.80;75.75;100357.16;4127086;28;20456;-75
2023/04/21 07:12:31;;;;;;;54.70;35.60;;;;;;;7.76;76.12;100357.94;4128385;28;20034;-75
2023/04/21 07:14:34;;;;;;;46.17;31.55;;;;;;;7.74;76.35;100362.16;4139856;28;20042;-75
2023/04/21 07:16:37;;;;;;;49.13;33.35;;;;;;;7.66;75.99;100362.84;4103531;28;20115;-75
2023/04/21 07:18:40;;;;;;;47.47;33.03;;;;;;;7.65;76.53;100361.13;4131594;28;20054;-75
2023/04/21 07:20:43;;;;;;;43.90;32.13;;;;;;;7.62;76.59;100361.06;4121491;28;20054;-74
2023/04/21 07:22:46;;;;;;;44.15;31.70;;;;;;;7.56;76.69;100360.88;4100922;28;20039;-75
2023/04/21 07:24:50;;;;;;;48.85;33.72;;;;;;;7.53;76.74;100365.13;4121493;28;20043;-76
2023/04/21 07:26:53;;;;;;;50.13;31.75;;;;;;;7.46;76.60;100367.56;4123862;28;20039;-75
2023/04/21 07:28:57;;;;;;;42.28;30.10;;;;;;;7.42;77.11;100364.88;4127016;28;20078;-75
2023/04/21 07:31:00;;;;;;;43.67;32.40;;;;;;;7.52;76.84;100356.50;4112545;28;20130;-76
2023/04/21 07:33:05;;;;;;;41.58;28.98;;;;;;;7.68;76.34;100353.44;4097394;28;20042;-76
2023/04/21 07:35:08;;;;;;;44.72;31.92;;;;;;;7.80;76.25;100355.44;4128582;28;20042;-75
2023/04/21 07:37:11;;;;;;;44.80;26.88;;;;;;;8.11;78.26;100350.09;4129105;28;20042;-66
2023/04/21 07:39:14;;;;;;;41.70;31.65;;;;;;;8.45;76.23;100346.53;4131383;28;20046;-65
2023/04/21 07:41:18;;;;;;;37.88;27.65;;;;;;;8.63;76.21;100348.66;4128758;28;20050;-66
2023/04/21 07:43:21;;;;;;;37.63;26.15;;;;;;;8.86;75.74;100343.03;4135419;28;20069;-66
2023/04/21 07:45:24;;;;;;;34.30;25.73;;;;;;;9.36;74.54;100342.22;4130057;28;20570;-66
2023/04/21 07:47:27;;;;;;;39.47;27.40;;;;;;;9.68;73.21;100352.25;4138398;28;20069;-66
2023/04/21 07:49:30;;;;;;;37.78;27.63;;;;;;;9.82;71.96;100350.75;4134401;28;20045;-65
2023/04/21 07:51:33;;;;;;;35.78;26.65;;;;;;;9.86;71.73;100346.50;4131879;28;20042;-65
2023/04/21 07:53:36;;;;;;;33.25;24.98;;;;;;;9.89;71.18;100344.81;4130383;28;20049;-65
2023/04/21 07:55:39;;;;;;;31.48;24.83;;;;;;;9.82;71.11;100342.09;4129941;28;20366;-64
2023/04/21 07:57:46;;;;;;;35.58;26.38;;;;;;;9.94;70.68;100340.56;4129089;28;20530;-65
2023/04/21 07:59:49;;;;;;;33.28;25.67;;;;;;;10.15;70.33;100336.53;4131078;28;20416;-75
2023/04/21 08:01:51;;;;;;;33.65;26.20;;;;;;;10.21;69.83;100334.00;4135596;28;20042;-76
2023/04/21 08:03:55;;;;;;;37.40;27.70;;;;;;;10.13;69.92;100335.63;4113384;28;20030;-76
2023/04/21 08:05:58;;;;;;;46.63;34.75;;;;;;;10.24;69.24;100322.78;4142837;28;20407;-76
2023/04/21 08:08:02;;;;;;;;;;;;;;;10.17;69.45;100321.81;4126999;28;20054;-75
2023/04/21 08:10:07;;;;;;;40.85;28.15;;;;;;;10.21;69.57;100317.56;4107811;28;19957;-76
2023/04/21 08:12:09;;;;;;;37.63;28.15;;;;;;;10.23;69.43;100319.31;4111946;28;20528;-76
2023/04/21 08:14:14;;;;;;;39.08;28.50;;;;;;;10.19;69.44;100316.66;4128515;28;20031;-76
2023/04/21 08:16:17;;;;;;;48.72;33.80;;;;;;;10.14;69.27;100320.06;4088667;28;20061;-75
2023/04/21 08:18:22;;;;;;;52.45;36.67;;;;;;;10.32;69.10;100321.16;4124995;28;20454;-76
2023/04/21 08:20:25;;;;;;;46.75;35.53;;;;;;;10.35;68.83;100315.16;4129212;28;20042;-76
2023/04/21 08:22:28;;;;;;;42.25;31.77;;;;;;;10.44;68.21;100313.56;4112228;28;20125;-76
2023/04/21 08:24:31;;;;;;;43.70;31.15;;;;;;;10.51;69.21;100311.03;4126400;28;20089;-76
2023/04/21 08:26:35;;;;;;;47.40;33.60;;;;;;;10.53;68.61;100319.72;4114253;28;20042;-77
2023/04/21 08:28:38;;;;;;;48.05;34.88;;;;;;;10.54;67.72;100314.56;4131122;28;20038;-76
2023/04/21 08:30:42;;;;;;;46.42;34.05;;;;;;;10.57;67.86;100317.19;4114342;28;20043;-76
2023/04/21 08:32:45;;;;;;;41.55;30.50;;;;;;;10.70;68.44;100306.91;4114927;28;20522;-77
2023/04/21 08:34:49;;;;;;;42.65;30.00;;;;;;;10.78;68.31;100311.34;4131100;28;20132;-75
2023/04/21 08:36:51;;;;;;;42.20;32.30;;;;;;;10.85;68.38;100299.28;4127559;28;20050;-76
2023/04/21 08:38:54;;;;;;;38.63;29.48;;;;;;;10.95;67.84;100302.84;4107467;28;20521;-76
2023/04/21 08:41:03;;;;;;;42.40;29.00;;;;;;;11.16;67.25;100292.66;4124479;28;20042;-78
2023/04/21 08:43:06;;;;;;;46.28;34.08;;;;;;;11.21;67.42;100289.22;4108394;28;20488;-77
2023/04/21 08:45:10;;;;;;;39.45;28.23;;;;;;;11.26;67.52;100295.34;4112906;28;20047;-77
2023/04/21 08:47:15;;;;;;;41.15;28.55;;;;;;;11.35;67.50;100298.88;4111825;28;20441;-77
2023/04/21 08:49:20;;;;;;;38.40;27.92;;;;;;;11.48;67.18;100296.41;4111165;28;20457;-77
2023/04/21 08:51:27;;;;;;;40.53;31.02;;;;;;;11.61;66.71;100295.63;4130508;28;20035;-77
2023/04/21 08:53:29;;;;;;;41.65;29.20;;;;;;;11.61;66.82;100297.34;4120419;28;20520;-77
2023/04/21 08:55:32;;;;;;;49.58;36.63;;;;;;;11.79;65.66;100300.06;4130967;28;20098;-77
2023/04/21 08:57:35;;;;;;;49.45;37.70;;;;;;;11.93;65.12;100302.81;4113654;28;20093;-75
2023/04/21 08:59:38;;;;;;;47.85;36.33;;;;;;;11.94;64.49;100293.25;4114152;28;20046;-77
2023/04/21 09:02:06;;;;;;;42.25;30.58;;;;;;;11.73;64.98;100305.25;4129380;28;20389;-76
2023/04/21 09:04:17;;;;;;;46.28;35.00;;;;;;;11.60;66.89;100293.00;4110175;28;20035;-76
2023/04/21 09:06:21;;;;;;;49.13;35.53;;;;;;;11.56;66.09;100294.69;4128237;28;20505;-76
2023/04/21 09:08:26;;;;;;;38.55;28.15;;;;;;;11.65;65.47;100292.19;4100430;28;20075;-76
2023/04/21 09:10:30;;;;;;;41.92;32.42;;;;;;;11.92;65.24;100289.75;4130226;28;20046;-76
2023/04/21 09:12:33;;;;;;;38.03;29.30;;;;;;;12.07;64.38;100278.56;4128527;28;20061;-76
2023/04/21 09:14:35;;;;;;;40.10;32.47;;;;;;;12.28;63.15;100280.38;4120059;28;20042;-76
2023/04/21 09:16:38;;;;;;;38.70;29.17;;;;;;;12.47;62.20;100273.50;4111769;28;20074;-77
2023/04/21 09:18:43;;;;;;;35.67;27.05;;;;;;;12.51;61.37;100275.25;4116762;28;20043;-76
2023/04/21 09:20:49;;;;;;;37.78;27.42;;;;;;;12.62;59.79;100267.50;4113473;28;20077;-75
2023/04/21 09:22:52;;;;;;;29.98;23.90;;;;;;;12.53;60.58;100263.97;4127904;28;20045;-76
2023/04/21 09:24:58;;;;;;;37.53;28.27;;;;;;;12.77;59.40;100258.81;4127054;28;20042;-76
2023/04/21 09:27:03;;;;;;;31.60;25.25;;;;;;;12.77;59.05;100251.00;4114175;28;20047;-75
2023/04/21 09:29:06;;;;;;;29.05;24.17;;;;;;;12.65;58.90;100257.06;4129493;28;20417;-76